National Weather Service Raw Text Product

Displaying AFOS PIL: TAFFOD Received: 2018-02-14 11:20 UTC


879 
FTUS43 KDMX 141120
TAFFOD
TAF
KFOD 141120Z 1412/1512 19006KT P6SM SKC
     FM141800 21010G16KT P6SM SKC
     FM150000 21009KT P6SM SCT240
     FM150800 23005KT P6SM BKN120=